Kingman, AZ

3:01 PM MST on September 01, 2015 (GMT -0700)
Southeast Kingman | | Change Station
CLOSE
Current Station
Personal Weather Station
Location: Kingman, AZ
Elevation: 3584 ft
Nearby Weather Stations

Elev 3584 ft 35.20 °N, 114.00 °W | Updated 1 minute ago

Clear
Clear
89.9 °F
Feels Like 87 °F
N
5.0
Wind Variable Wind from SSE
Gusts 5.0 mph

Today
High -- | Low -- °F
--% Chance of Precip.
Yesterday
High -- | Low -- °F
Precip. -- in
6:08 AM 7:03 PM
Waning Gibbous, 86% visible
Pressure 29.75 in
Visibility 10.0 miles
Clouds Clear
Heat Index 87 °F
Dew Point 48 °F
Humidity 24%
Rainfall 0.00 in
Snow Depth Not available.
UV 7 out of 12
Pollen 6.90 out of 12
Air Quality Not available.
Flu Activity Not available.
METAR KIGM 012151Z AUTO 23015G22KT 10SM CLR 34/08 A2998 RMK AO2 SLP072 T03390083
Pressure 29.75 in
Visibility 10.0 miles
Clouds Clear
Heat Index 87 °F
Dew Point 48 °F
Humidity 24%
Rainfall 0.00 in
Snow Depth Not available.
UV 7 out of 12
Pollen 6.90 out of 12
Air Quality Not available.
Flu Activity Not available.
METAR KIGM 012151Z AUTO 23015G22KT 10SM CLR 34/08 A2998 RMK AO2 SLP072 T03390083

10-Day Weather Forecast

×

Almanac

Astronomy

Sep. 01, 2015 Rise Set
Actual Time
Civil Twilight
Nautical Twilight
Astronomical Twilight
Moon
Length of Visible Light
Length of Day
Tomorrow will be .
, % of the Moon is Illuminated

Today's Extremes

State Highs State Lows

Community

WunderPhotos

Upload Photos

1,851,629 photos uploaded!

WunderBlogs® & News

Nearby

Air Quality

  Air Quality AQ Index Pollutant
Not available.

Snow Depth

Station Depth Elevation

Earthquake Activity

City Distance Mag. Time & Date
Minimum magnitude displayed is 2.5.

Coastal Water Temperatures

Place Temperature

Stations

Nearby Weather Stations

Station Location Temp. Windchill Dew Point Humidity Wind Precip. Elev Updated Type